Terminal Aerodrome Forecast
Issued by NWS Melbourne, FL

Home | Current Version | Previous Version | Text Only | Print | Product List | Glossary On
Versions: 1 2 3 4 5 6 7 8 9 10 11 12 13 14 15 16
000
FTUS42 KMLB 251700
TAFDAB
TAF
KDAB 251738Z 2518/2618 18006KT P6SM VCTS SCT040CB SCT050 SCT250
     FM251900 15008KT P6SM VCTS SCT040CB SCT080 SCT250
      TEMPO 2520/2522 3SM TSRA SCT020 BKN035CB OVC080
     FM260100 21003KT P6SM FEW040 BKN250
     FM261400 25006KT P6SM SCT020 SCT250=

USA.gov is the U.S. government's official web portal to all federal, state and local government web resources and services.